Time,TemperatureF,DewpointF,PressureIn,WindDirection,WindDirectionDegrees,WindSpeedMPH,WindSpeedGustMPH,Humidity,HourlyPrecipIn,Conditions,Clouds,dailyrainin,SoftwareType,DateUTC
2013-03-23 00:03:00,50.5,26.9,29.92,West,270,0.0,0.0,40,0.00,,,0.00,WUHU21636XXSP,2013-03-23 07:03:00,
2013-03-23 00:14:00,49.9,26.3,29.92,WNW,292,0.0,0.0,40,0.00,,,0.00,WUHU21636XXSP,2013-03-23 07:14:00,
2013-03-23 00:24:00,49.9,26.3,29.92,West,270,0.0,0.0,40,0.00,,,0.00,WUHU21636XXSP,2013-03-23 07:24:00,
2013-03-23 00:34:00,50.5,26.3,29.92,South,180,0.0,0.0,39,0.00,,,0.00,WUHU21636XXSP,2013-03-23 07:34:00,
2013-03-23 00:45:00,50.1,26.5,29.92,West,270,0.0,0.0,40,0.00,,,0.00,WUHU21636XXSP,2013-03-23 07:45:00,
2013-03-23 00:55:00,49.4,26.5,29.92,West,270,0.0,0.0,41,0.00,,,0.00,WUHU21636XXSP,2013-03-23 07:55:00,
2013-03-23 01:06:00,49.2,26.9,29.92,WNW,292,0.0,0.0,42,0.00,,,0.00,WUHU21636XXSP,2013-03-23 08:06:00,
2013-03-23 01:16:00,49.0,26.7,29.92,WNW,292,0.0,0.0,42,0.00,,,0.00,WUHU21636XXSP,2013-03-23 08:16:00,
2013-03-23 01:27:00,49.9,26.3,29.92,West,270,0.0,0.0,40,0.00,,,0.00,WUHU21636XXSP,2013-03-23 08:27:00,
2013-03-23 01:37:00,48.7,24.0,29.93,WNW,292,0.0,0.0,38,0.00,,,0.00,WUHU21636XXSP,2013-03-23 08:37:00,
2013-03-23 01:48:00,47.8,24.4,29.93,North,0,0.0,0.0,40,0.00,,,0.00,WUHU21636XXSP,2013-03-23 08:48:00,
2013-03-23 01:58:00,47.8,24.4,29.93,North,0,0.0,0.0,40,0.00,,,0.00,WUHU21636XXSP,2013-03-23 08:58:00,
2013-03-23 02:09:00,45.6,23.7,29.93,NW,315,0.0,0.0,42,0.00,,,0.00,WUHU21636XXSP,2013-03-23 09:09:00,
2013-03-23 02:20:00,47.1,23.2,29.93,WNW,292,0.0,0.0,39,0.00,,,0.00,WUHU21636XXSP,2013-03-23 09:20:00,
2013-03-23 02:30:00,49.2,21.8,29.92,WNW,292,0.0,0.0,34,0.00,,,0.00,WUHU21636XXSP,2013-03-23 09:30:00,
2013-03-23 02:41:00,49.6,22.1,29.92,West,270,0.0,0.0,34,0.00,,,0.00,WUHU21636XXSP,2013-03-23 09:41:00,
2013-03-23 02:52:00,49.4,22.0,29.91,WNW,292,0.0,0.0,34,0.00,,,0.00,WUHU21636XXSP,2013-03-23 09:52:00,
2013-03-23 03:02:00,48.9,22.2,29.92,West,270,0.0,0.0,35,0.00,,,0.00,WUHU21636XXSP,2013-03-23 10:02:00,
2013-03-23 03:13:00,48.9,22.2,29.91,WNW,292,0.0,0.0,35,0.00,,,0.00,WUHU21636XXSP,2013-03-23 10:13:00,
2013-03-23 03:23:00,48.9,22.2,29.91,West,270,0.0,0.0,35,0.00,,,0.00,WUHU21636XXSP,2013-03-23 10:23:00,
2013-03-23 03:33:00,48.3,21.7,29.91,WNW,292,0.0,0.0,35,0.00,,,0.00,WUHU21636XXSP,2013-03-23 10:33:00,
2013-03-23 03:44:00,47.4,22.2,29.91,West,270,0.0,0.0,37,0.00,,,0.00,WUHU21636XXSP,2013-03-23 10:44:00,
2013-03-23 03:54:00,47.8,22.6,29.91,West,270,0.0,0.0,37,0.00,,,0.00,WUHU21636XXSP,2013-03-23 10:54:00,
2013-03-23 04:05:00,47.8,22.6,29.91,West,270,0.0,0.0,37,0.00,,,0.00,WUHU21636XXSP,2013-03-23 11:05:00,
2013-03-23 04:15:00,48.7,23.4,29.91,West,270,0.0,0.0,37,0.00,,,0.00,WUHU21636XXSP,2013-03-23 11:15:00,
2013-03-23 04:26:00,49.0,23.0,29.91,West,270,0.0,0.0,36,0.00,,,0.00,WUHU21636XXSP,2013-03-23 11:26:00,
2013-03-23 04:37:00,49.4,23.3,29.91,West,270,0.0,0.0,36,0.00,,,0.00,WUHU21636XXSP,2013-03-23 11:37:00,
2013-03-23 04:47:00,49.4,23.3,29.91,WNW,292,0.0,0.0,36,0.00,,,0.00,WUHU21636XXSP,2013-03-23 11:47:00,
2013-03-23 04:58:00,49.2,23.8,29.91,West,270,0.0,0.0,37,0.00,,,0.00,WUHU21636XXSP,2013-03-23 11:58:00,
2013-03-23 05:08:00,49.0,23.6,29.92,WNW,292,0.0,0.0,37,0.00,,,0.00,WUHU21636XXSP,2013-03-23 12:08:00,
2013-03-23 05:19:00,48.9,23.5,29.93,West,270,0.0,0.0,37,0.00,,,0.00,WUHU21636XXSP,2013-03-23 12:19:00,
2013-03-23 05:29:00,48.7,23.4,29.93,WNW,292,0.0,0.0,37,0.00,,,0.00,WUHU21636XXSP,2013-03-23 12:29:00,
2013-03-23 05:40:00,48.5,23.8,29.93,West,270,0.0,0.0,38,0.00,,,0.00,WUHU21636XXSP,2013-03-23 12:40:00,
2013-03-23 05:50:00,48.3,23.6,29.94,West,270,0.0,0.0,38,0.00,,,0.00,WUHU21636XXSP,2013-03-23 12:50:00,
2013-03-23 06:01:00,48.3,23.6,29.95,WSW,247,0.0,0.0,38,0.00,,,0.00,WUHU21636XXSP,2013-03-23 13:01:00,
2013-03-23 06:11:00,48.3,23.6,29.95,NW,315,0.0,0.0,38,0.00,,,0.00,WUHU21636XXSP,2013-03-23 13:11:00,
2013-03-23 06:22:00,47.4,23.5,29.95,WNW,292,0.0,0.0,39,0.00,,,0.00,WUHU21636XXSP,2013-03-23 13:22:00,
2013-03-23 06:32:00,48.5,24.5,29.95,NNW,337,0.0,0.0,39,0.00,,,0.00,WUHU21636XXSP,2013-03-23 13:32:00,
2013-03-23 06:43:00,49.2,25.1,29.95,WNW,292,0.0,0.0,39,0.00,,,0.00,WUHU21636XXSP,2013-03-23 13:43:00,
2013-03-23 06:53:00,50.8,25.9,29.96,WNW,292,0.0,0.0,38,0.00,,,0.00,WUHU21636XXSP,2013-03-23 13:53:00,
2013-03-23 07:04:00,53.4,26.9,29.95,West,270,0.0,0.0,36,0.00,,,0.00,WUHU21636XXSP,2013-03-23 14:04:00,
2013-03-23 07:14:00,55.9,27.7,29.96,West,270,0.0,0.0,34,0.00,,,0.00,WUHU21636XXSP,2013-03-23 14:14:00,
2013-03-23 07:24:00,57.6,28.4,29.96,West,270,0.0,0.0,33,0.00,,,0.00,WUHU21636XXSP,2013-03-23 14:24:00,
2013-03-23 07:35:00,58.5,27.7,29.97,West,270,0.0,0.0,31,0.00,,,0.00,WUHU21636XXSP,2013-03-23 14:35:00,
2013-03-23 07:45:00,60.1,27.5,29.97,West,270,0.0,0.0,29,0.00,,,0.00,WUHU21636XXSP,2013-03-23 14:45:00,
2013-03-23 07:56:00,61.5,27.9,29.97,West,270,0.0,0.0,28,0.00,,,0.00,WUHU21636XXSP,2013-03-23 14:56:00,
2013-03-23 08:07:00,63.5,26.0,29.98,West,270,0.0,0.0,24,0.00,,,0.00,WUHU21636XXSP,2013-03-23 15:07:00,
2013-03-23 08:17:00,65.7,26.7,29.98,West,270,0.0,0.0,23,0.00,,,0.00,WUHU21636XXSP,2013-03-23 15:17:00,
2013-03-23 08:27:00,69.7,25.5,29.98,WNW,292,0.0,0.0,19,0.00,,,0.00,WUHU21636XXSP,2013-03-23 15:27:00,
2013-03-23 08:38:00,70.9,25.3,29.99,West,270,0.0,0.0,18,0.00,,,0.00,WUHU21636XXSP,2013-03-23 15:38:00,
2013-03-23 08:49:00,68.5,21.9,29.99,NNW,337,0.0,0.0,17,0.00,,,0.00,WUHU21636XXSP,2013-03-23 15:49:00,
2013-03-23 08:59:00,68.8,22.2,29.99,North,0,0.0,0.0,17,0.00,,,0.00,WUHU21636XXSP,2013-03-23 15:59:00,
2013-03-23 09:10:00,71.2,22.6,29.98,West,270,0.0,0.0,16,0.00,,,0.00,WUHU21636XXSP,2013-03-23 16:10:00,
2013-03-23 09:20:00,69.2,14.2,29.98,West,270,0.0,0.0,12,0.00,,,0.00,WUHU21636XXSP,2013-03-23 16:20:00,
2013-03-23 09:31:00,66.6,14.0,29.99,NE,45,1.7,2.2,13,0.00,,,0.00,WUHU21636XXSP,2013-03-23 16:31:00,
2013-03-23 09:41:00,65.7,13.4,29.99,WSW,247,0.0,2.2,13,0.00,,,0.00,WUHU21636XXSP,2013-03-23 16:41:00,
2013-03-23 09:52:00,64.9,16.0,30.00,WSW,247,0.0,0.0,15,0.00,,,0.00,WUHU21636XXSP,2013-03-23 16:52:00,
2013-03-23 10:02:00,62.0,13.8,29.99,NW,315,0.9,30.4,15,0.00,,,0.00,WUHU21636XXSP,2013-03-23 17:02:00,
2013-03-23 10:13:00,63.9,11.9,30.00,NNW,337,0.0,4.0,13,0.00,,,0.00,WUHU21636XXSP,2013-03-23 17:13:00,
2013-03-23 10:23:00,63.9,11.9,30.00,North,0,0.0,22.2,13,0.00,,,0.00,WUHU21636XXSP,2013-03-23 17:23:00,
2013-03-23 10:34:00,64.0,12.0,30.00,WNW,292,0.0,0.0,13,0.00,,,0.00,WUHU21636XXSP,2013-03-23 17:34:00,
2013-03-23 10:44:00,64.6,12.5,29.99,WNW,292,0.0,1.6,13,0.00,,,0.00,WUHU21636XXSP,2013-03-23 17:44:00,
2013-03-23 10:55:00,66.0,7.5,29.99,NW,315,3.0,25.4,10,0.00,,,0.00,WUHU21636XXSP,2013-03-23 17:55:00,
2013-03-23 11:05:00,65.3,11.2,30.00,NNW,337,0.0,1.2,12,0.00,,,0.00,WUHU21636XXSP,2013-03-23 18:05:00,
2013-03-23 11:16:00,64.3,10.4,29.99,WNW,292,3.0,4.0,12,0.00,,,0.00,WUHU21636XXSP,2013-03-23 18:16:00,
2013-03-23 11:26:00,63.2,11.4,29.99,NW,315,0.0,34.0,13,0.00,,,0.00,WUHU21636XXSP,2013-03-23 18:26:00,
2013-03-23 11:57:00,64.2,10.4,29.98,NW,315,0.0,34.4,12,0.00,,,0.00,WUHU21636XXSP,2013-03-23 18:57:00,
2013-03-23 12:33:00,66.1,13.7,29.97,WNW,292,0.0,29.8,13,0.00,,,0.00,WUHU21636XXSP,2013-03-23 19:33:00,
2013-03-23 13:08:00,66.3,7.8,29.98,West,270,0.0,7.0,10,0.00,,,0.00,WUHU21636XXSP,2013-03-23 20:08:00,
2013-03-23 13:44:00,68.7,9.6,29.98,WSW,247,0.0,2.2,10,0.00,,,0.00,WUHU21636XXSP,2013-03-23 20:44:00,
2013-03-23 14:19:00,67.0,8.3,29.97,NW,315,4.6,7.0,10,0.00,,,0.00,WUHU21636XXSP,2013-03-23 21:19:00,
2013-03-23 14:55:00,65.5,9.3,29.96,NE,45,4.9,43.2,11,0.00,,,0.00,WUHU21636XXSP,2013-03-23 21:55:00,
2013-03-23 15:30:00,65.5,9.4,29.96,NNW,337,0.6,37.4,11,0.00,,,0.00,WUHU21636XXSP,2013-03-23 22:30:00,
2013-03-23 16:06:00,65.5,11.4,29.96,NW,315,1.7,37.0,12,0.00,,,0.00,WUHU21636XXSP,2013-03-23 23:06:00,
2013-03-23 16:41:00,64.6,14.2,29.95,WNW,292,10.0,47.4,14,0.00,,,0.00,WUHU21636XXSP,2013-03-23 23:41:00,
2013-03-23 17:16:00,64.1,16.9,29.96,WNW,292,0.0,6.6,16,0.00,,,0.00,WUHU21636XXSP,2013-03-24 00:16:00,
2013-03-23 17:52:00,62.1,18.1,29.97,North,0,0.0,4.0,18,0.00,,,0.00,WUHU21636XXSP,2013-03-24 00:52:00,
2013-03-23 18:27:00,59.6,17.2,29.98,North,0,0.0,5.8,19,0.00,,,0.00,WUHU21636XXSP,2013-03-24 01:27:00,
2013-03-23 19:03:00,57.7,17.9,29.99,NNW,337,0.0,4.0,21,0.00,,,0.00,WUHU21636XXSP,2013-03-24 02:03:00,
2013-03-23 19:38:00,55.0,15.7,30.00,WNW,292,0.0,0.0,21,0.00,,,0.00,WUHU21636XXSP,2013-03-24 02:38:00,
2013-03-23 20:14:00,52.8,13.8,30.02,WNW,292,0.0,0.0,21,0.00,,,0.00,WUHU21636XXSP,2013-03-24 03:14:00,
2013-03-23 20:49:00,50.7,13.1,30.03,West,270,0.0,0.0,22,0.00,,,0.00,WUHU21636XXSP,2013-03-24 03:49:00,
2013-03-23 21:25:00,50.5,11.9,30.04,West,270,0.0,0.0,21,0.00,,,0.00,WUHU21636XXSP,2013-03-24 04:25:00,
2013-03-23 22:00:00,47.6,13.3,30.04,West,270,0.0,0.0,25,0.00,,,0.00,WUHU21636XXSP,2013-03-24 05:00:00,
2013-03-23 22:36:00,49.0,9.6,30.04,WNW,292,0.0,0.0,20,0.00,,,0.00,WUHU21636XXSP,2013-03-24 05:36:00,
2013-03-23 23:11:00,49.9,10.3,30.04,NW,315,0.0,0.0,20,0.00,,,0.00,WUHU21636XXSP,2013-03-24 06:11:00,
2013-03-23 23:46:00,50.7,8.7,30.04,NNW,337,0.0,0.0,18,0.00,,,0.00,WUHU21636XXSP,2013-03-24 06:46:00,